Time;durP1;ratioP1;P1;durP2;ratioP2;P2;SDS_P1;SDS_P2;PMS_P1;PMS_P2;Temp;Humidity;BMP_temperature;BMP_pressure;BME280_temperature;BME280_humidity;BME280_pressure;Samples;Min_cycle;Max_cycle;Signal;HPM_P1;HPM_P2
2023/04/30 00:00:39;;;;;;;0.57;0.20;;;;;;;4.85;100.00;101094.31;5016747;28;20212;-78
2023/04/30 00:03:04;;;;;;;0.00;0.00;;;;;;;4.88;100.00;101099.22;5016235;28;20275;-77
2023/04/30 00:05:29;;;;;;;0.00;0.00;;;;;;;4.90;100.00;101098.94;5015354;28;20267;-78
2023/04/30 00:07:55;;;;;;;0.00;0.00;;;;;;;4.93;100.00;101099.28;5014558;28;20204;-78
2023/04/30 00:10:20;;;;;;;0.03;0.03;;;;;;;4.85;100.00;101097.03;5016129;28;20176;-78
2023/04/30 00:12:46;;;;;;;0.17;0.17;;;;;;;4.79;100.00;101100.78;5015260;28;20176;-78
2023/04/30 00:15:11;;;;;;;0.00;0.00;;;;;;;4.74;100.00;101098.81;5015151;28;20188;-78
2023/04/30 00:17:36;;;;;;;0.17;0.17;;;;;;;4.62;100.00;101100.03;5015160;28;20177;-78
2023/04/30 00:20:02;;;;;;;0.10;0.10;;;;;;;4.54;100.00;101095.09;5015293;28;20230;-78
2023/04/30 00:22:27;;;;;;;0.37;0.20;;;;;;;4.52;100.00;101108.06;5016661;28;20208;-78
2023/04/30 00:24:53;;;;;;;0.00;0.00;;;;;;;4.46;100.00;101101.78;5015590;28;20184;-78
2023/04/30 00:27:18;;;;;;;0.77;0.73;;;;;;;4.42;100.00;101109.59;5016731;28;20208;-78
2023/04/30 00:29:43;;;;;;;0.20;0.20;;;;;;;4.33;100.00;101112.97;5014436;28;20189;-78
2023/04/30 00:32:09;;;;;;;0.47;0.47;;;;;;;4.25;100.00;101106.16;5014648;28;20716;-78
2023/04/30 00:34:34;;;;;;;0.00;0.00;;;;;;;4.21;100.00;101106.91;5014477;28;20195;-77
2023/04/30 00:36:59;;;;;;;2.27;1.00;;;;;;;4.17;100.00;101103.88;5013613;28;20177;-77
2023/04/30 00:39:24;;;;;;;0.37;0.37;;;;;;;4.10;100.00;101111.38;5015701;28;20183;-78
2023/04/30 00:41:50;;;;;;;1.00;0.90;;;;;;;4.05;100.00;101114.84;5014742;28;20196;-77
2023/04/30 00:44:15;;;;;;;0.63;0.57;;;;;;;4.05;100.00;101111.31;5013432;28;20661;-77
2023/04/30 00:46:40;;;;;;;4.97;1.23;;;;;;;4.08;100.00;101114.34;5014664;28;20318;-78
2023/04/30 00:49:06;;;;;;;0.50;0.33;;;;;;;4.15;100.00;101123.06;5014174;28;20176;-77
2023/04/30 00:51:32;;;;;;;0.33;0.33;;;;;;;4.17;100.00;101131.75;5013915;28;20200;-78
2023/04/30 00:54:00;;;;;;;0.37;0.37;;;;;;;4.21;100.00;101121.25;5012438;28;20223;-78
2023/04/30 00:56:25;;;;;;;0.50;0.50;;;;;;;4.20;100.00;101121.50;5013789;28;20184;-77
2023/04/30 00:58:53;;;;;;;0.70;0.70;;;;;;;4.16;100.00;101119.28;5013903;28;20540;-78
2023/04/30 01:01:18;;;;;;;0.33;0.33;;;;;;;4.10;100.00;101123.00;5013652;28;20588;-78
2023/04/30 01:03:44;;;;;;;0.30;0.30;;;;;;;4.09;100.00;101129.50;5013978;28;20259;-77
2023/04/30 01:06:10;;;;;;;0.40;0.40;;;;;;;4.04;100.00;101131.28;5013783;28;20181;-77
2023/04/30 01:08:35;;;;;;;0.10;0.10;;;;;;;3.98;100.00;101135.00;5012454;28;20254;-78
2023/04/30 01:11:11;;;;;;;3.50;1.73;;;;;;;3.92;100.00;101136.84;5013464;28;20569;-77
2023/04/30 01:13:49;;;;;;;2.53;1.07;;;;;;;3.86;100.00;101133.22;5013733;28;20271;-77
2023/04/30 01:16:21;;;;;;;0.80;0.80;;;;;;;3.85;100.00;101134.31;5013520;28;20176;-78
2023/04/30 01:19:14;;;;;;;18.97;1.80;;;;;;;3.76;100.00;101138.53;5013593;28;20181;-78
2023/04/30 01:21:42;;;;;;;5.27;0.73;;;;;;;3.78;100.00;101135.56;5012288;28;20266;-77
2023/04/30 01:24:34;;;;;;;1.13;1.03;;;;;;;3.78;100.00;101138.28;5012157;28;20621;-77
2023/04/30 01:27:11;;;;;;;0.93;0.93;;;;;;;3.80;100.00;101149.66;5013546;28;20653;-78
2023/04/30 01:29:38;;;;;;;0.20;0.20;;;;;;;3.78;100.00;101146.38;5013524;28;20242;-78
2023/04/30 01:32:03;;;;;;;0.47;0.47;;;;;;;3.78;100.00;101151.78;5013306;28;20232;-78
2023/04/30 01:34:29;;;;;;;0.83;0.83;;;;;;;3.73;100.00;101151.69;5013319;28;20176;-78
2023/04/30 01:37:14;;;;;;;0.77;0.77;;;;;;;3.68;100.00;101152.44;5013289;28;20235;-78
2023/04/30 01:40:11;;;;;;;0.60;0.60;;;;;;;3.68;100.00;101157.03;5012126;28;20183;-77
2023/04/30 01:43:04;;;;;;;0.60;0.57;;;;;;;3.67;100.00;101155.41;4992662;28;20216;-78
2023/04/30 01:45:49;;;;;;;0.80;0.80;;;;;;;3.58;100.00;101161.22;5012988;28;20176;-78
2023/04/30 01:49:02;;;;;;;0.20;0.20;;;;;;;3.62;100.00;101150.75;5012949;28;20196;-77
2023/04/30 01:51:47;;;;;;;0.03;0.03;;;;;;;3.52;100.00;101156.81;5013050;28;20207;-77
2023/04/30 01:54:35;;;;;;;0.70;0.70;;;;;;;3.58;100.00;101160.38;5012721;28;20177;-78
2023/04/30 01:57:10;;;;;;;0.77;0.77;;;;;;;3.54;100.00;101162.78;5011361;28;20219;-78
2023/04/30 01:59:38;;;;;;;15.83;1.03;;;;;;;3.52;100.00;101166.78;5013575;28;20222;-78
2023/04/30 02:02:05;;;;;;;0.93;0.93;;;;;;;3.53;100.00;101163.03;5011166;28;20701;-78
2023/04/30 02:04:30;;;;;;;0.30;0.30;;;;;;;3.46;100.00;101167.75;5012375;28;20203;-77
2023/04/30 02:06:57;;;;;;;0.47;0.47;;;;;;;3.44;100.00;101173.41;5012866;28;20259;-77
2023/04/30 02:09:23;;;;;;;0.73;0.63;;;;;;;3.43;100.00;101165.56;5001425;28;20173;-77
2023/04/30 02:11:48;;;;;;;0.63;0.63;;;;;;;3.42;100.00;101180.94;5008070;28;20204;-78
2023/04/30 02:14:13;;;;;;;0.27;0.27;;;;;;;3.39;100.00;101176.03;5010928;28;20187;-78
2023/04/30 02:16:39;;;;;;;0.30;0.30;;;;;;;3.32;100.00;101177.25;5012956;28;20527;-76
2023/04/30 02:19:04;;;;;;;0.77;0.77;;;;;;;3.32;100.00;101182.66;5012702;28;20222;-77
2023/04/30 02:21:30;;;;;;;0.30;0.30;;;;;;;3.32;100.00;101179.94;5013550;28;20204;-77
2023/04/30 02:23:55;;;;;;;0.37;0.37;;;;;;;3.41;100.00;101184.72;5012290;28;20183;-77
2023/04/30 02:26:21;;;;;;;0.13;0.13;;;;;;;3.39;100.00;101184.16;5011526;28;20179;-77
2023/04/30 02:28:46;;;;;;;0.10;0.10;;;;;;;3.28;100.00;101183.16;5012704;28;20211;-77
2023/04/30 02:31:11;;;;;;;1.20;1.20;;;;;;;3.26;100.00;101179.06;5013061;28;20200;-78
2023/04/30 02:33:37;;;;;;;0.40;0.40;;;;;;;3.18;100.00;101182.16;5012616;28;20207;-78
2023/04/30 02:36:02;;;;;;;0.10;0.10;;;;;;;3.19;100.00;101183.81;5011142;28;20561;-77
2023/04/30 02:38:27;;;;;;;1.07;1.07;;;;;;;3.18;100.00;101180.31;5013246;28;20247;-78
2023/04/30 02:40:53;;;;;;;5.30;2.53;;;;;;;3.11;100.00;101187.72;5013080;28;20204;-77
2023/04/30 02:43:18;;;;;;;0.17;0.17;;;;;;;3.06;100.00;101186.81;5012864;28;20189;-78
2023/04/30 02:45:47;;;;;;;1.20;1.20;;;;;;;3.14;100.00;101187.22;5011701;28;20255;-77
2023/04/30 02:48:12;;;;;;;0.30;0.30;;;;;;;3.18;100.00;101179.44;5011923;28;20686;-78
2023/04/30 02:50:37;;;;;;;0.10;0.10;;;;;;;3.19;100.00;101184.63;5011644;28;20211;-77
2023/04/30 02:53:03;;;;;;;0.10;0.10;;;;;;;3.12;100.00;101183.13;5012448;28;20650;-77
2023/04/30 02:55:28;;;;;;;2.10;0.50;;;;;;;3.13;100.00;101187.47;5011534;28;20207;-77
2023/04/30 02:57:55;;;;;;;1.17;0.97;;;;;;;3.05;100.00;101190.59;5011264;28;20537;-77
2023/04/30 03:00:20;;;;;;;0.10;0.10;;;;;;;2.98;100.00;101188.03;5012327;28;20211;-77
2023/04/30 03:02:45;;;;;;;0.23;0.23;;;;;;;3.04;100.00;101197.03;5012317;28;20560;-78
2023/04/30 03:05:11;;;;;;;0.00;0.00;;;;;;;3.08;100.00;101201.72;5011988;28;20647;-77
2023/04/30 03:07:37;;;;;;;0.07;0.07;;;;;;;3.04;100.00;101195.16;5027906;28;20247;-78
2023/04/30 03:10:02;;;;;;;0.67;0.67;;;;;;;3.03;100.00;101196.19;5012054;28;20259;-76
2023/04/30 03:12:27;;;;;;;0.10;0.10;;;;;;;3.02;100.00;101197.28;5011078;28;20207;-77
2023/04/30 03:14:53;;;;;;;0.23;0.23;;;;;;;2.96;100.00;101196.38;5012604;28;20188;-77
2023/04/30 03:17:18;;;;;;;0.10;0.10;;;;;;;2.93;100.00;101199.56;5014985;28;20188;-77
2023/04/30 03:19:43;;;;;;;0.40;0.40;;;;;;;2.91;100.00;101198.97;5019621;28;20188;-77
2023/04/30 03:22:10;;;;;;;0.97;0.50;;;;;;;2.87;100.00;101207.78;5024119;28;20204;-77
2023/04/30 03:24:35;;;;;;;0.53;0.53;;;;;;;2.79;100.00;101203.59;5022613;28;20176;-78
2023/04/30 03:27:01;;;;;;;1.47;1.47;;;;;;;2.74;100.00;101208.06;5018276;28;20227;-77
2023/04/30 03:29:26;;;;;;;0.13;0.13;;;;;;;2.73;100.00;101195.66;5034090;28;20180;-77
2023/04/30 03:31:52;;;;;;;0.83;0.83;;;;;;;2.71;100.00;101195.88;5033229;28;20300;-77
2023/04/30 03:34:17;;;;;;;0.83;0.83;;;;;;;2.70;100.00;101202.34;5032171;28;20211;-77
2023/04/30 03:36:42;;;;;;;0.50;0.50;;;;;;;2.63;100.00;101199.81;5015052;28;20594;-78
2023/04/30 03:39:08;;;;;;;0.47;0.47;;;;;;;2.62;100.00;101202.75;5014455;28;20172;-78
2023/04/30 03:41:34;;;;;;;0.30;0.30;;;;;;;2.68;100.00;101205.28;5015565;28;20196;-78
2023/04/30 03:43:59;;;;;;;0.20;0.20;;;;;;;2.62;100.00;101205.44;5030496;28;20216;-78
2023/04/30 03:46:25;;;;;;;0.07;0.07;;;;;;;2.59;100.00;101203.19;5014882;28;20184;-78
2023/04/30 03:48:50;;;;;;;0.23;0.23;;;;;;;2.54;100.00;101211.19;5013742;28;20705;-78
2023/04/30 03:51:17;;;;;;;0.43;0.43;;;;;;;2.45;100.00;101207.22;5014953;28;20200;-78
2023/04/30 03:53:42;;;;;;;0.13;0.13;;;;;;;2.52;100.00;101207.91;5014830;28;20180;-78
2023/04/30 03:56:09;;;;;;;0.17;0.17;;;;;;;2.55;100.00;101210.97;5013439;28;20196;-78
2023/04/30 03:58:35;;;;;;;0.80;0.80;;;;;;;2.59;100.00;101219.38;5029560;28;20579;-77
2023/04/30 04:01:00;;;;;;;7.03;0.63;;;;;;;2.50;100.00;101218.94;5013807;28;20232;-77
2023/04/30 04:03:26;;;;;;;0.47;0.47;;;;;;;2.44;100.00;101222.59;5013856;28;20177;-78
2023/04/30 04:05:51;;;;;;;0.57;0.57;;;;;;;2.44;100.00;101222.59;5013512;28;20655;-77
2023/04/30 04:08:16;;;;;;;0.10;0.10;;;;;;;2.55;100.00;101229.84;5012627;28;20204;-77
2023/04/30 04:10:42;;;;;;;1.70;1.60;;;;;;;2.60;100.00;101224.56;5013901;28;20211;-78
2023/04/30 04:13:07;;;;;;;0.23;0.23;;;;;;;2.55;100.00;101226.31;5013893;28;20245;-78
2023/04/30 04:15:33;;;;;;;1.23;1.23;;;;;;;2.54;100.00;101227.38;5014654;28;20186;-77
2023/04/30 04:17:58;;;;;;;1.23;1.23;;;;;;;2.59;100.00;101232.88;5015427;28;20176;-78
2023/04/30 04:20:23;;;;;;;0.93;0.93;;;;;;;2.55;100.00;101232.53;5014784;28;20184;-78
2023/04/30 04:22:49;;;;;;;2.57;2.47;;;;;;;2.57;100.00;101235.00;5007382;28;20185;-77
2023/04/30 04:25:14;;;;;;;2.40;2.30;;;;;;;2.61;100.00;101241.56;5003309;28;20181;-77
2023/04/30 04:27:40;;;;;;;0.00;0.00;;;;;;;2.62;100.00;101248.59;5012615;28;20208;-76
2023/04/30 04:30:06;;;;;;;0.37;0.37;;;;;;;2.69;100.00;101250.09;5013856;28;20184;-77
2023/04/30 04:32:31;;;;;;;0.00;0.00;;;;;;;2.84;100.00;101246.88;5013719;28;20612;-77
2023/04/30 04:34:57;;;;;;;0.30;0.30;;;;;;;2.98;100.00;101250.09;5013694;28;20191;-77
2023/04/30 04:37:22;;;;;;;0.00;0.00;;;;;;;2.94;100.00;101247.06;5014382;28;20183;-78
2023/04/30 04:39:47;;;;;;;0.10;0.10;;;;;;;2.87;100.00;101246.38;5013576;28;20208;-77
2023/04/30 04:42:15;;;;;;;0.10;0.10;;;;;;;2.92;100.00;101251.91;5014525;28;20204;-78
2023/04/30 04:44:41;;;;;;;0.00;0.00;;;;;;;2.96;100.00;101255.75;5014568;28;20594;-78
2023/04/30 04:47:07;;;;;;;4.60;4.40;;;;;;;3.10;100.00;101247.34;5014558;28;20176;-78
2023/04/30 04:49:32;;;;;;;0.00;0.00;;;;;;;3.11;100.00;101260.63;5014757;28;20197;-78
2023/04/30 04:51:58;;;;;;;3.37;1.03;;;;;;;3.26;100.00;101250.09;5014792;28;20204;-78
2023/04/30 04:54:23;;;;;;;0.70;0.67;;;;;;;3.33;100.00;101258.06;5014005;28;20177;-77
2023/04/30 04:56:48;;;;;;;1.73;1.70;;;;;;;3.39;100.00;101264.34;5013031;28;20196;-78
2023/04/30 04:59:15;;;;;;;3.30;3.20;;;;;;;3.44;100.00;101267.13;5014945;28;20180;-78
2023/04/30 05:01:41;;;;;;;0.00;0.00;;;;;;;3.53;100.00;101274.59;5013792;28;20208;-77
2023/04/30 05:04:08;;;;;;;0.50;0.50;;;;;;;3.62;100.00;101266.94;5013371;28;20264;-76
2023/04/30 05:06:33;;;;;;;0.00;0.00;;;;;;;3.68;100.00;101265.13;5012066;28;20562;-79
2023/04/30 05:08:58;;;;;;;0.00;0.00;;;;;;;3.78;100.00;101274.22;5012204;28;20204;-78
2023/04/30 05:11:24;;;;;;;0.00;0.00;;;;;;;3.92;100.00;101279.28;5012269;28;20250;-79
2023/04/30 05:13:49;;;;;;;0.00;0.00;;;;;;;4.03;100.00;101278.38;5011014;28;20200;-77
2023/04/30 05:16:15;;;;;;;0.00;0.00;;;;;;;4.14;100.00;101282.88;5014886;28;20191;-78
2023/04/30 05:18:40;;;;;;;0.00;0.00;;;;;;;4.29;100.00;101276.84;5010818;28;20188;-79
2023/04/30 05:21:07;;;;;;;0.77;0.77;;;;;;;4.38;100.00;101278.91;5016014;28;20196;-83
2023/04/30 05:23:33;;;;;;;0.00;0.00;;;;;;;4.50;100.00;101281.50;5014105;28;20566;-77
2023/04/30 05:25:58;;;;;;;0.00;0.00;;;;;;;4.59;100.00;101277.25;5015043;28;20218;-78
2023/04/30 05:28:23;;;;;;;0.00;0.00;;;;;;;4.69;100.00;101290.13;5015204;28;20342;-78
2023/04/30 05:30:49;;;;;;;0.00;0.00;;;;;;;4.72;100.00;101285.00;5013422;28;20710;-78
2023/04/30 05:33:14;;;;;;;0.00;0.00;;;;;;;4.83;100.00;101291.38;5012754;28;20563;-77
2023/04/30 05:35:40;;;;;;;0.00;0.00;;;;;;;4.95;100.00;101293.97;5015627;28;20184;-77
2023/04/30 05:38:05;;;;;;;0.00;0.00;;;;;;;5.01;100.00;101301.06;5015164;28;20647;-77
2023/04/30 05:40:31;;;;;;;0.00;0.00;;;;;;;5.08;100.00;101299.81;5014017;28;20180;-78
2023/04/30 05:42:56;;;;;;;0.00;0.00;;;;;;;5.16;100.00;101298.53;5016177;28;20185;-77
2023/04/30 05:45:21;;;;;;;0.00;0.00;;;;;;;5.24;100.00;101300.78;5013668;28;20624;-77
2023/04/30 05:47:47;;;;;;;0.00;0.00;;;;;;;5.30;100.00;101296.22;5013223;28;20220;-77
2023/04/30 05:50:12;;;;;;;0.00;0.00;;;;;;;5.36;100.00;101295.22;5005331;28;20181;-77
2023/04/30 05:52:37;;;;;;;0.67;0.67;;;;;;;5.36;100.00;101296.03;5011522;28;20231;-77
2023/04/30 05:55:03;;;;;;;0.00;0.00;;;;;;;5.41;100.00;101306.09;5011582;28;20181;-78
2023/04/30 05:57:29;;;;;;;0.00;0.00;;;;;;;5.49;100.00;101308.34;5012538;28;20562;-77
2023/04/30 05:59:54;;;;;;;0.00;0.00;;;;;;;5.68;100.00;101314.22;5012447;28;20230;-77
2023/04/30 06:02:19;;;;;;;0.00;0.00;;;;;;;5.82;100.00;101304.59;5011797;28;20726;-77
2023/04/30 06:04:46;;;;;;;0.47;0.47;;;;;;;5.88;100.00;101311.69;5010476;28;20180;-77
2023/04/30 06:07:12;;;;;;;0.00;0.00;;;;;;;5.90;100.00;101312.28;5011576;28;20194;-77
2023/04/30 06:09:37;;;;;;;6.17;0.83;;;;;;;5.95;100.00;101316.94;5011419;28;20263;-77
2023/04/30 06:12:04;;;;;;;0.00;0.00;;;;;;;5.86;100.00;101316.56;5012468;28;20256;-77
2023/04/30 06:14:29;;;;;;;0.17;0.17;;;;;;;6.03;100.00;101312.91;5010780;28;20199;-77
2023/04/30 06:16:54;;;;;;;0.20;0.20;;;;;;;6.02;100.00;101314.81;5013383;28;20380;-77
2023/04/30 06:19:20;;;;;;;0.47;0.47;;;;;;;6.14;100.00;101314.63;5013255;28;20725;-76
2023/04/30 06:21:45;;;;;;;0.10;0.10;;;;;;;6.29;100.00;101317.47;5012812;28;20210;-77
2023/04/30 06:24:10;;;;;;;0.10;0.10;;;;;;;6.34;100.00;101309.34;5010488;28;20658;-77
2023/04/30 06:26:36;;;;;;;0.60;0.60;;;;;;;6.40;100.00;101324.59;5012078;28;20188;-78
2023/04/30 06:29:01;;;;;;;1.00;0.43;;;;;;;6.31;100.00;101323.44;5013164;28;20212;-77
2023/04/30 06:31:26;;;;;;;0.20;0.20;;;;;;;6.37;99.68;101319.69;5012889;28;20255;-78
2023/04/30 06:33:52;;;;;;;0.47;0.47;;;;;;;6.55;99.20;101324.69;4992598;28;20184;-78
2023/04/30 06:36:18;;;;;;;0.73;0.30;;;;;;;6.54;96.21;101311.38;4993289;28;20223;-78
2023/04/30 06:38:45;;;;;;;0.07;0.07;;;;;;;6.50;93.30;101311.06;5005762;28;20261;-77
2023/04/30 06:41:10;;;;;;;0.73;0.73;;;;;;;6.67;91.27;101312.81;5012314;28;20210;-78
2023/04/30 06:43:36;;;;;;;4.03;0.87;;;;;;;6.47;88.76;101298.03;5014307;28;20196;-82
2023/04/30 06:46:01;;;;;;;0.00;0.00;;;;;;;6.65;88.57;101307.59;5013114;28;20191;-82
2023/04/30 06:48:26;;;;;;;0.10;0.10;;;;;;;6.57;88.51;101305.41;5012562;28;20208;-77
2023/04/30 06:50:52;;;;;;;0.13;0.13;;;;;;;6.72;88.99;101315.53;5014815;28;20674;-77
2023/04/30 06:53:17;;;;;;;0.40;0.40;;;;;;;6.69;87.97;101297.06;5015738;28;20238;-81
2023/04/30 06:55:47;;;;;;;6.03;0.83;;;;;;;7.00;87.30;101309.69;5017904;28;20250;-77
2023/04/30 06:58:12;;;;;;;0.00;0.00;;;;;;;6.88;86.27;101302.84;5022188;28;20176;-80
2023/04/30 07:00:38;;;;;;;0.10;0.00;;;;;;;6.91;86.38;101310.44;5027771;28;20267;-81
2023/04/30 07:03:03;;;;;;;0.43;0.37;;;;;;;6.80;85.20;101299.56;5023067;28;20176;-83
2023/04/30 07:05:30;;;;;;;2.13;2.03;;;;;;;7.05;85.93;101317.03;5016256;28;20661;-77
2023/04/30 07:07:56;;;;;;;1.13;0.43;;;;;;;6.97;84.22;101304.78;5016784;28;20693;-77
2023/04/30 07:10:21;;;;;;;3.07;1.00;;;;;;;6.91;83.01;101308.56;5015409;28;20188;-77
2023/04/30 07:12:47;;;;;;;0.00;0.00;;;;;;;7.05;83.49;101311.59;5014048;28;20176;-77
2023/04/30 07:15:12;;;;;;;0.10;0.10;;;;;;;7.07;83.46;101321.09;5013692;28;20176;-77
2023/04/30 07:17:37;;;;;;;0.07;0.03;;;;;;;7.22;84.24;101324.97;5014145;28;20184;-77
2023/04/30 07:20:04;;;;;;;0.40;0.40;;;;;;;7.13;84.30;101325.50;5012636;28;20188;-77
2023/04/30 07:22:30;;;;;;;1.30;0.73;;;;;;;7.21;84.65;101328.75;5014525;28;20207;-77
2023/04/30 07:24:56;;;;;;;2.83;0.33;;;;;;;7.27;85.58;101335.88;5014602;28;20180;-77
2023/04/30 07:27:21;;;;;;;0.50;0.50;;;;;;;7.42;84.08;101330.47;5014533;28;20204;-77
2023/04/30 07:29:47;;;;;;;0.00;0.00;;;;;;;7.51;82.41;101326.13;5014347;28;20169;-77
2023/04/30 07:32:13;;;;;;;0.47;0.47;;;;;;;7.41;83.35;101326.94;5013793;28;20677;-77
2023/04/30 07:34:39;;;;;;;0.33;0.20;;;;;;;7.58;84.13;101334.03;5000245;28;20604;-77
2023/04/30 07:37:04;;;;;;;0.33;0.33;;;;;;;7.58;83.88;101329.41;5015685;28;20188;-77
2023/04/30 07:39:30;;;;;;;0.03;0.03;;;;;;;7.62;82.09;101316.09;5032421;28;20207;-77
2023/04/30 07:41:55;;;;;;;0.47;0.10;;;;;;;7.77;82.24;101324.25;5015463;28;20261;-77
2023/04/30 07:44:21;;;;;;;0.20;0.10;;;;;;;7.97;80.30;101313.41;5013465;28;20184;-76
2023/04/30 07:46:46;;;;;;;0.40;0.40;;;;;;;7.95;80.61;101314.72;5014018;28;20568;-77
2023/04/30 07:49:11;;;;;;;0.13;0.13;;;;;;;7.84;79.43;101318.56;5013729;28;20287;-76
2023/04/30 07:51:37;;;;;;;4.00;1.50;;;;;;;7.52;78.78;101310.63;5016367;28;20228;-84
2023/04/30 07:54:03;;;;;;;1.47;1.37;;;;;;;7.33;78.99;101318.47;5017582;28;20177;-81
2023/04/30 07:56:29;;;;;;;0.20;0.20;;;;;;;7.52;79.17;101316.88;5015211;28;20212;-78
2023/04/30 07:58:54;;;;;;;0.10;0.10;;;;;;;7.47;78.58;101316.88;5014219;28;20251;-77
2023/04/30 08:01:19;;;;;;;0.10;0.10;;;;;;;7.54;78.73;101314.72;5010934;28;20201;-77
2023/04/30 08:03:45;;;;;;;0.33;0.33;;;;;;;7.54;79.25;101317.44;5012087;28;20207;-77
2023/04/30 08:06:10;;;;;;;1.40;1.30;;;;;;;7.58;79.29;101315.81;5012859;28;20238;-77
2023/04/30 08:08:36;;;;;;;0.00;0.00;;;;;;;7.62;78.64;101316.91;5013292;28;20207;-77
2023/04/30 08:11:01;;;;;;;2.63;0.53;;;;;;;8.04;79.44;101321.28;5011711;28;20208;-76
2023/04/30 08:13:27;;;;;;;0.40;0.20;;;;;;;7.96;76.90;101309.03;5012974;28;20173;-77
2023/04/30 08:15:52;;;;;;;0.00;0.00;;;;;;;7.86;76.39;101316.38;5011493;28;20191;-77
2023/04/30 08:18:17;;;;;;;0.00;0.00;;;;;;;7.83;76.44;101320.47;5013088;28;20177;-77
2023/04/30 08:20:42;;;;;;;10.00;2.03;;;;;;;7.65;76.15;101307.38;5013143;28;20196;-77
2023/04/30 08:23:08;;;;;;;1.03;1.03;;;;;;;7.75;76.03;101310.94;5010121;28;20402;-77
2023/04/30 08:25:33;;;;;;;0.77;0.47;;;;;;;7.89;75.96;101318.56;5013253;28;20251;-77
2023/04/30 08:27:58;;;;;;;0.10;0.10;;;;;;;8.08;76.99;101325.06;5013298;28;20192;-77
2023/04/30 08:30:24;;;;;;;0.00;0.00;;;;;;;8.37;77.69;101328.06;4996743;28;20618;-77
2023/04/30 08:32:49;;;;;;;1.23;1.07;;;;;;;8.27;75.46;101306.28;5012696;28;20203;-77
2023/04/30 08:35:18;;;;;;;2.30;2.10;;;;;;;8.14;74.50;101301.41;5010038;28;20172;-77
2023/04/30 08:37:43;;;;;;;0.00;0.00;;;;;;;8.28;75.07;101306.03;4999271;28;20673;-77
2023/04/30 08:40:10;;;;;;;0.47;0.47;;;;;;;8.33;74.21;101307.91;5012517;28;20266;-77
2023/04/30 08:42:40;;;;;;;0.00;0.00;;;;;;;8.27;73.63;101303.56;5027577;28;20200;-77
2023/04/30 08:45:10;;;;;;;0.03;0.00;;;;;;;8.09;74.98;101318.53;5012081;28;20176;-78
2023/04/30 08:47:36;;;;;;;1.07;0.63;;;;;;;8.12;73.86;101303.59;5012461;28;20204;-77
2023/04/30 08:50:01;;;;;;;0.50;0.30;;;;;;;8.28;73.69;101308.75;5012369;28;20207;-77
2023/04/30 08:52:29;;;;;;;1.70;1.13;;;;;;;8.02;73.81;101301.69;5012241;28;20686;-77
2023/04/30 08:54:57;;;;;;;1.00;1.00;;;;;;;8.00;73.70;101292.97;5027292;28;20188;-77
2023/04/30 08:57:22;;;;;;;0.10;0.10;;;;;;;8.05;73.49;101296.50;5012334;28;20693;-77
2023/04/30 08:59:48;;;;;;;0.40;0.40;;;;;;;8.32;74.23;101303.56;5012421;28;20181;-77
2023/04/30 09:02:13;;;;;;;0.30;0.30;;;;;;;8.45;73.06;101304.94;5012285;28;20279;-77
2023/04/30 09:04:38;;;;;;;5.57;0.87;;;;;;;8.54;72.76;101303.28;5009819;28;20186;-77
2023/04/30 09:07:05;;;;;;;2.00;0.63;;;;;;;8.48;71.91;101288.03;5012084;28;20181;-77
2023/04/30 09:09:37;;;;;;;0.10;0.10;;;;;;;8.76;72.33;101297.47;5012105;28;20225;-77
2023/04/30 09:12:13;;;;;;;1.30;1.30;;;;;;;8.94;71.79;101289.47;5011496;28;20268;-76
2023/04/30 09:14:39;;;;;;;0.17;0.17;;;;;;;8.93;71.79;101287.84;5011712;28;20263;-77
2023/04/30 09:17:05;;;;;;;0.20;0.20;;;;;;;8.98;71.81;101289.75;5012790;28;20173;-77
2023/04/30 09:19:30;;;;;;;0.20;0.20;;;;;;;8.99;71.15;101285.13;5013048;28;20635;-77
2023/04/30 09:21:56;;;;;;;0.00;0.00;;;;;;;9.25;71.56;101301.03;5012369;28;20199;-77
2023/04/30 09:24:22;;;;;;;0.00;0.00;;;;;;;9.24;70.11;101277.59;5011736;28;20558;-77
2023/04/30 09:26:50;;;;;;;0.03;0.03;;;;;;;9.24;70.20;101277.59;5011517;28;20212;-77
2023/04/30 09:29:15;;;;;;;0.00;0.00;;;;;;;9.15;68.70;101278.50;5011468;28;20296;-77
2023/04/30 09:31:43;;;;;;;0.00;0.00;;;;;;;9.14;67.74;101265.97;5011649;28;20279;-78
2023/04/30 09:34:09;;;;;;;0.30;0.30;;;;;;;9.16;68.45;101280.13;5010653;28;20230;-77
2023/04/30 09:36:35;;;;;;;0.00;0.00;;;;;;;9.18;70.32;101280.66;5012421;28;21010;-77
2023/04/30 09:39:12;;;;;;;0.47;0.13;;;;;;;9.40;70.02;101292.00;5013356;28;20207;-77
2023/04/30 09:41:38;;;;;;;0.73;0.63;;;;;;;9.73;70.20;101289.56;5016494;28;20227;-77
2023/04/30 09:44:04;;;;;;;2.33;0.63;;;;;;;9.70;67.61;101266.41;5009198;28;20716;-77
2023/04/30 09:46:32;;;;;;;0.10;0.10;;;;;;;9.62;66.09;101261.53;4995763;28;20302;-77
2023/04/30 09:49:03;;;;;;;0.30;0.30;;;;;;;9.31;65.88;101247.31;5007568;28;20192;-78
2023/04/30 09:51:28;;;;;;;0.00;0.00;;;;;;;9.65;66.76;101260.16;5011214;28;20243;-78
2023/04/30 09:53:55;;;;;;;0.37;0.37;;;;;;;9.63;64.10;101248.72;5011894;28;20220;-78
2023/04/30 09:56:22;;;;;;;0.40;0.40;;;;;;;9.44;61.75;101233.03;5012206;28;20192;-78
2023/04/30 09:58:50;;;;;;;0.23;0.10;;;;;;;9.52;62.33;101237.06;5011698;28;20177;-78
2023/04/30 10:01:16;;;;;;;0.00;0.00;;;;;;;9.56;61.38;101226.41;5007656;28;20201;-77
2023/04/30 10:03:42;;;;;;;2.90;0.60;;;;;;;9.69;61.23;101229.31;4994753;28;20181;-78
2023/04/30 10:06:11;;;;;;;0.00;0.00;;;;;;;9.86;61.81;101233.53;5010785;28;20192;-78
2023/04/30 10:08:42;;;;;;;0.00;0.00;;;;;;;10.04;62.67;101239.06;5011827;28;20228;-79
2023/04/30 10:11:11;;;;;;;0.00;0.00;;;;;;;10.18;63.27;101241.13;5026807;28;20215;-76
2023/04/30 10:13:46;;;;;;;0.60;0.33;;;;;;;9.83;62.68;101232.16;5011630;28;20180;-76
2023/04/30 10:16:22;;;;;;;0.00;0.00;;;;;;;10.01;63.68;101239.66;5010192;28;20189;-77
2023/04/30 10:18:51;;;;;;;0.00;0.00;;;;;;;10.09;61.39;101219.06;5012372;28;20179;-77
2023/04/30 10:21:20;;;;;;;0.00;0.00;;;;;;;10.38;62.32;101224.53;5017109;28;20211;-78
2023/04/30 10:23:45;;;;;;;0.00;0.00;;;;;;;10.41;60.97;101219.31;4998428;28;20550;-77
2023/04/30 10:26:11;;;;;;;1.07;1.00;;;;;;;10.33;60.95;101222.69;5000879;28;20267;-77
2023/04/30 10:28:39;;;;;;;3.50;0.40;;;;;;;10.55;62.06;101229.50;5006602;28;20204;-77
2023/04/30 10:31:07;;;;;;;0.10;0.10;;;;;;;10.63;61.99;101224.22;5028743;28;20184;-77
2023/04/30 10:34:02;;;;;;;0.30;0.30;;;;;;;10.70;60.37;101205.56;5031304;28;20184;-77
2023/04/30 10:36:39;;;;;;;0.00;0.00;;;;;;;10.99;59.92;101208.19;5016162;28;20181;-79
2023/04/30 10:39:05;;;;;;;0.03;0.03;;;;;;;11.01;58.34;101199.69;5013520;28;20635;-78
2023/04/30 10:41:31;;;;;;;0.67;0.43;;;;;;;10.85;57.41;101185.41;5011731;28;20237;-79
2023/04/30 10:44:00;;;;;;;0.00;0.00;;;;;;;10.65;55.36;101181.03;5012426;28;20180;-78
2023/04/30 10:46:27;;;;;;;0.00;0.00;;;;;;;10.82;56.83;101185.97;5012022;28;20184;-78
2023/04/30 10:48:54;;;;;;;0.00;0.00;;;;;;;10.98;57.95;101195.59;5010961;28;20217;-79
2023/04/30 10:51:20;;;;;;;0.00;0.00;;;;;;;10.95;57.93;101182.50;5010629;28;20208;-78
2023/04/30 10:53:49;;;;;;;0.97;0.53;;;;;;;11.09;58.78;101195.44;5009523;28;20177;-77
2023/04/30 10:56:28;;;;;;;0.20;0.20;;;;;;;10.96;56.51;101180.59;5011784;28;20194;-78
2023/04/30 10:59:00;;;;;;;2.80;0.10;;;;;;;10.92;57.25;101171.38;4995643;28;20561;-78
2023/04/30 11:01:25;;;;;;;0.00;0.00;;;;;;;10.83;57.67;101176.69;4992377;28;20284;-77
2023/04/30 11:04:05;;;;;;;0.00;0.00;;;;;;;11.01;56.95;101172.34;5006408;28;20227;-78
2023/04/30 11:06:53;;;;;;;0.23;0.23;;;;;;;11.18;57.41;101183.56;5012608;28;20234;-78
2023/04/30 11:09:23;;;;;;;0.80;0.80;;;;;;;10.91;57.23;101173.28;5012232;28;20216;-78
2023/04/30 11:12:01;;;;;;;0.97;0.37;;;;;;;11.39;60.67;101199.63;5012117;28;20250;-78
2023/04/30 11:14:31;;;;;;;0.23;0.23;;;;;;;11.04;56.85;101166.28;5002358;28;20725;-78
2023/04/30 11:17:00;;;;;;;0.30;0.30;;;;;;;11.22;57.08;101172.81;5012119;28;20663;-78
2023/04/30 11:19:26;;;;;;;0.00;0.00;;;;;;;11.18;56.80;101169.88;5013448;28;20177;-77
2023/04/30 11:22:04;;;;;;;8.17;1.07;;;;;;;11.16;55.67;101147.50;5013677;28;20201;-78
2023/04/30 11:24:52;;;;;;;0.00;0.00;;;;;;;11.37;56.30;101158.91;5009363;28;20180;-77
2023/04/30 11:27:26;;;;;;;0.00;0.00;;;;;;;11.40;56.75;101157.47;5004910;28;20172;-77